This is the latest recevied weather packets stored in our database for station/object DN9EL-10. If no packets are shown the sender has not sent any weather packets the latest 10 day(s).
| Time | Temp. | Humidity | Pressure | Rain* | Wind** | Luminosity | Snow |
|---|---|---|---|---|---|---|---|
| 1777710810 | 13.33° C | 43% | 968.9 hPa | - | - | - | - |
| 1777709910 | 13.33° C | 45% | 969 hPa | - | - | - | - |
| 1777709009 | 11.11° C | 49% | 968.9 hPa | - | - | - | - |
| 1777708109 | 11.11° C | 49% | 969.1 hPa | - | - | - | - |
| 1777707209 | 8.89° C | 53% | 969.2 hPa | - | - | - | - |
| 1777706309 | 7.78° C | 56% | 969.1 hPa | - | - | - | - |
| 1777705409 | 6.67° C | 56% | 969.1 hPa | - | - | - | - |
| 1777704509 | 6.11° C | 58% | 969.1 hPa | - | - | - | - |
| 1777703609 | 6.11° C | 57% | 969.2 hPa | - | - | - | - |
| 1777702709 | 5° C | 55% | 969.2 hPa | - | - | - | - |
| 1777701809 | 5° C | 55% | 969.2 hPa | - | - | - | - |
| 1777700909 | 4.44° C | 56% | 969.2 hPa | - | - | - | - |
| 1777700009 | 4.44° C | 54% | 969.2 hPa | - | - | - | - |
| 1777699108 | 4.44° C | 55% | 969.2 hPa | - | - | - | - |
| 1777698208 | 4.44° C | 56% | 969.2 hPa | - | - | - | - |
| 1777697308 | 4.44° C | 56% | 969.3 hPa | - | - | - | - |
| 1777696408 | 4.44° C | 55% | 969.3 hPa | - | - | - | - |
| 1777695508 | 5° C | 55% | 969.4 hPa | - | - | - | - |
| 1777694608 | 5° C | 54% | 969.4 hPa | - | - | - | - |
| 1777693708 | 5° C | 54% | 969.5 hPa | - | - | - | - |
| 1777692808 | 5° C | 54% | 969.5 hPa | - | - | - | - |
| 1777691908 | 5.56° C | 53% | 969.5 hPa | - | - | - | - |
| 1777691008 | 5.56° C | 53% | 969.7 hPa | - | - | - | - |
| 1777690108 | 5.56° C | 53% | 969.7 hPa | - | - | - | - |
| 1777689208 | 6.11° C | 53% | 969.9 hPa | - | - | - | - |
* Rain since midnight (hover to see other rain measurements)
** Current wind speed in m/s (hover to see current wind gust speed)